createdAt,value
2023-05-16T00:00:40.607Z,1.30
2023-05-16T00:03:07.709Z,1.42
2023-05-16T00:05:34.613Z,1.52
2023-05-16T00:08:01.863Z,1.52
2023-05-16T00:10:28.933Z,1.35
2023-05-16T00:12:56.399Z,1.38
2023-05-16T00:15:25.204Z,1.45
2023-05-16T00:17:52.647Z,1.58
2023-05-16T00:20:23.567Z,1.50
2023-05-16T00:22:51.051Z,2.28
2023-05-16T00:25:18.764Z,1.77
2023-05-16T00:27:45.856Z,2.22
2023-05-16T00:30:13.334Z,1.95
2023-05-16T00:32:40.210Z,2.10
2023-05-16T00:35:12.898Z,1.70
2023-05-16T00:37:39.753Z,1.85
2023-05-16T00:40:08.714Z,1.60
2023-05-16T00:42:35.520Z,1.83
2023-05-16T00:45:02.396Z,2.20
2023-05-16T00:47:29.222Z,1.70
2023-05-16T00:49:56.731Z,1.77
2023-05-16T00:52:23.964Z,1.98
2023-05-16T00:54:51.738Z,2.05
2023-05-16T00:57:18.848Z,1.40
2023-05-16T00:59:48.811Z,1.48
2023-05-16T01:02:15.947Z,1.30
2023-05-16T01:04:44.478Z,1.15
2023-05-16T01:07:12.172Z,1.40
2023-05-16T01:09:39.538Z,1.13
2023-05-16T01:12:30.086Z,1.20
2023-05-16T01:15:17.477Z,1.10
2023-05-16T01:17:57.932Z,1.05
2023-05-16T01:20:43.622Z,1.17
2023-05-16T01:23:26.867Z,1.13
2023-05-16T01:26:02.613Z,0.93
2023-05-16T01:28:30.718Z,1.00
2023-05-16T01:30:57.970Z,0.98
2023-05-16T01:33:24.819Z,0.77
2023-05-16T01:36:11.369Z,1.10
2023-05-16T01:39:04.159Z,0.98
2023-05-16T01:41:43.050Z,0.73
2023-05-16T01:44:33.648Z,0.60
2023-05-16T01:47:07.333Z,0.80
2023-05-16T01:49:46.517Z,1.30
2023-05-16T01:52:21.728Z,1.20
2023-05-16T01:54:51.153Z,1.40
2023-05-16T01:57:18.201Z,1.70
2023-05-16T01:59:46.027Z,1.67
2023-05-16T02:02:13.265Z,2.17
2023-05-16T02:04:40.049Z,2.10
2023-05-16T02:07:07.721Z,1.90
2023-05-16T02:09:34.520Z,1.70
2023-05-16T02:12:02.295Z,2.15
2023-05-16T02:14:29.531Z,1.77
2023-05-16T02:16:57.628Z,2.13
2023-05-16T02:19:24.474Z,1.50
2023-05-16T02:21:51.499Z,1.35
2023-05-16T02:24:18.333Z,1.15
2023-05-16T02:26:45.243Z,1.17
2023-05-16T02:29:12.111Z,1.30
2023-05-16T02:31:38.979Z,1.65
2023-05-16T02:34:07.257Z,1.35
2023-05-16T02:36:35.952Z,1.60
2023-05-16T02:39:04.256Z,1.50
2023-05-16T02:41:31.852Z,1.48
2023-05-16T02:43:59.071Z,1.90
2023-05-16T02:46:28.664Z,2.00
2023-05-16T02:48:55.564Z,1.90
2023-05-16T02:51:24.031Z,1.40
2023-05-16T02:53:51.070Z,1.80
2023-05-16T02:56:18.780Z,1.38
2023-05-16T02:58:49.265Z,1.58
2023-05-16T03:01:17.524Z,1.20
2023-05-16T03:03:44.753Z,1.30
2023-05-16T03:06:11.716Z,1.35
2023-05-16T03:08:39.004Z,1.27
2023-05-16T03:11:06.062Z,1.70
2023-05-16T03:13:33.136Z,1.40
2023-05-16T03:16:00.894Z,1.30
2023-05-16T03:18:28.173Z,1.35
2023-05-16T03:20:55.084Z,1.60
2023-05-16T03:23:22.286Z,1.30
2023-05-16T03:25:49.475Z,1.70
2023-05-16T03:28:18.032Z,1.25
2023-05-16T03:30:45.148Z,1.67
2023-05-16T03:33:12.041Z,1.55
2023-05-16T03:35:39.778Z,1.40
2023-05-16T03:38:07.031Z,1.40
2023-05-16T03:40:33.859Z,1.45
2023-05-16T03:43:00.799Z,2.00
2023-05-16T03:45:27.930Z,1.80
2023-05-16T03:47:55.045Z,1.98
2023-05-16T03:50:22.433Z,1.73
2023-05-16T03:52:49.282Z,2.08
2023-05-16T03:55:16.535Z,1.50
2023-05-16T03:57:43.561Z,1.17
2023-05-16T04:00:12.460Z,1.45
2023-05-16T04:02:43.974Z,2.40
2023-05-16T04:05:12.423Z,1.92
2023-05-16T04:07:39.671Z,2.30
2023-05-16T04:10:07.641Z,1.50
2023-05-16T04:12:34.859Z,1.60
2023-05-16T04:15:03.659Z,1.38
2023-05-16T04:17:30.793Z,1.50
2023-05-16T04:19:57.679Z,1.38
2023-05-16T04:22:24.994Z,1.45
2023-05-16T04:24:52.250Z,1.20
2023-05-16T04:27:19.124Z,1.20
2023-05-16T04:29:46.173Z,1.38
2023-05-16T04:32:12.993Z,1.85
2023-05-16T04:34:40.775Z,2.60
2023-05-16T04:37:08.620Z,1.50
2023-05-16T04:39:36.631Z,1.75
2023-05-16T04:42:04.535Z,1.67
2023-05-16T04:44:31.919Z,1.50
2023-05-16T04:46:59.644Z,2.00
2023-05-16T04:49:26.573Z,1.50
2023-05-16T04:51:53.393Z,1.90
2023-05-16T04:54:20.296Z,1.50
2023-05-16T04:56:47.052Z,1.73
2023-05-16T04:59:13.885Z,1.65
2023-05-16T05:01:40.755Z,1.33
2023-05-16T05:04:07.513Z,1.85
2023-05-16T05:06:34.700Z,1.75
2023-05-16T05:09:01.469Z,1.88
2023-05-16T05:11:28.344Z,2.03
2023-05-16T05:13:55.112Z,2.80
2023-05-16T05:16:22.118Z,2.38
2023-05-16T05:18:49.257Z,4.85
2023-05-16T05:21:16.108Z,2.67
2023-05-16T05:23:42.964Z,2.55
2023-05-16T05:26:09.965Z,2.88
2023-05-16T05:28:37.987Z,3.20
2023-05-16T05:31:05.943Z,2.90
2023-05-16T05:33:33.276Z,3.15
2023-05-16T05:36:01.438Z,2.90
2023-05-16T05:38:29.441Z,2.80
2023-05-16T05:40:56.711Z,3.17
2023-05-16T05:43:23.528Z,3.30
2023-05-16T05:45:51.105Z,3.17
2023-05-16T05:48:18.034Z,3.70
2023-05-16T05:50:44.847Z,3.72
2023-05-16T05:53:11.647Z,3.20
2023-05-16T05:55:38.434Z,4.28
2023-05-16T05:58:07.165Z,3.92
2023-05-16T06:00:34.233Z,3.47
2023-05-16T06:03:01.337Z,3.38
2023-05-16T06:05:28.768Z,3.20
2023-05-16T06:07:56.158Z,3.42
2023-05-16T06:10:23.169Z,3.00
2023-05-16T06:12:50.100Z,3.20
2023-05-16T06:15:17.023Z,4.07
2023-05-16T06:17:43.861Z,4.10
2023-05-16T06:20:11.598Z,4.88
2023-05-16T06:22:38.425Z,3.97
2023-05-16T06:25:05.669Z,4.63
2023-05-16T06:27:32.892Z,5.10
2023-05-16T06:29:59.694Z,4.60
2023-05-16T06:32:26.528Z,4.65
2023-05-16T06:34:53.759Z,4.75
2023-05-16T06:37:20.625Z,5.57
2023-05-16T06:39:47.406Z,5.55
2023-05-16T06:42:15.189Z,6.22
2023-05-16T06:44:41.989Z,5.97
2023-05-16T06:47:08.898Z,6.93
2023-05-16T06:49:36.028Z,5.80
2023-05-16T06:52:02.927Z,6.90
2023-05-16T06:54:29.994Z,7.32
2023-05-16T06:56:57.228Z,8.63
2023-05-16T06:59:24.863Z,7.38
2023-05-16T07:01:52.771Z,7.82
2023-05-16T07:04:19.819Z,7.60
2023-05-16T07:06:46.652Z,7.85
2023-05-16T07:09:13.891Z,8.73
2023-05-16T07:11:40.819Z,10.02
2023-05-16T07:14:08.107Z,9.93
2023-05-16T07:16:34.972Z,10.55
2023-05-16T07:19:02.115Z,10.75
2023-05-16T07:21:30.291Z,10.95
2023-05-16T07:23:58.045Z,11.80
2023-05-16T07:26:25.331Z,12.00
2023-05-16T07:28:52.530Z,11.25
2023-05-16T07:31:19.529Z,12.68
2023-05-16T07:33:47.205Z,12.40
2023-05-16T07:36:16.996Z,13.10
2023-05-16T07:38:45.354Z,14.32
2023-05-16T07:41:12.353Z,15.40
2023-05-16T07:43:39.305Z,12.52
2023-05-16T07:46:06.565Z,11.38
2023-05-16T07:48:33.953Z,10.43
2023-05-16T07:51:00.955Z,10.57
2023-05-16T07:53:28.231Z,11.07
2023-05-16T07:55:56.318Z,10.63
2023-05-16T07:58:23.223Z,10.32
2023-05-16T08:00:50.997Z,12.50
2023-05-16T08:03:18.062Z,12.27
2023-05-16T08:05:45.297Z,11.65
2023-05-16T08:08:12.443Z,9.18
2023-05-16T08:10:39.369Z,8.13
2023-05-16T08:13:06.433Z,7.60
2023-05-16T08:15:33.937Z,8.13
2023-05-16T08:18:01.396Z,7.35
2023-05-16T08:20:28.635Z,7.30
2023-05-16T08:22:55.684Z,6.40
2023-05-16T08:25:22.670Z,7.53
2023-05-16T08:27:51.223Z,7.75
2023-05-16T08:30:18.224Z,8.93
2023-05-16T08:32:45.255Z,7.28
2023-05-16T08:35:13.147Z,9.45
2023-05-16T08:37:40.551Z,9.07
2023-05-16T08:40:10.777Z,6.82
2023-05-16T08:42:38.284Z,6.43
2023-05-16T08:45:06.831Z,6.03
2023-05-16T08:47:36.600Z,6.38
2023-05-16T08:50:07.043Z,6.57
2023-05-16T08:52:37.778Z,6.45
2023-05-16T08:55:11.128Z,7.63
2023-05-16T08:57:39.118Z,8.13
2023-05-16T09:00:14.452Z,6.70
2023-05-16T09:02:43.399Z,5.80
2023-05-16T09:05:13.280Z,6.15
2023-05-16T09:07:40.823Z,6.00
2023-05-16T09:10:08.464Z,7.32
2023-05-16T09:12:36.153Z,6.95
2023-05-16T09:15:04.835Z,6.75
2023-05-16T09:17:42.543Z,6.78
2023-05-16T09:20:13.075Z,6.05
2023-05-16T09:22:40.633Z,6.65
2023-05-16T09:25:12.652Z,7.05
2023-05-16T09:27:48.646Z,7.10
2023-05-16T09:30:17.083Z,7.57
2023-05-16T09:32:45.588Z,7.65
2023-05-16T09:35:27.157Z,8.45
2023-05-16T09:38:04.608Z,7.05
2023-05-16T09:40:31.566Z,7.85
2023-05-16T09:43:06.229Z,8.02
2023-05-16T09:45:34.674Z,5.80
2023-05-16T09:48:07.389Z,6.30
2023-05-16T09:50:35.809Z,7.18
2023-05-16T09:53:03.892Z,6.43
2023-05-16T09:55:31.794Z,5.68
2023-05-16T09:57:58.768Z,5.63
2023-05-16T10:00:33.166Z,5.38
2023-05-16T10:03:05.164Z,5.88
2023-05-16T10:05:33.821Z,5.78
2023-05-16T10:08:03.892Z,5.25
2023-05-16T10:10:33.462Z,5.38
2023-05-16T10:13:04.676Z,4.55
2023-05-16T10:15:32.017Z,4.80
2023-05-16T10:18:00.605Z,4.65
2023-05-16T10:20:27.971Z,4.80
2023-05-16T10:22:56.934Z,4.50
2023-05-16T10:25:34.098Z,4.63
2023-05-16T10:28:02.824Z,5.20
2023-05-16T10:30:31.292Z,5.25
2023-05-16T10:32:59.429Z,5.93
2023-05-16T10:35:27.874Z,6.20
2023-05-16T10:37:56.346Z,5.15
2023-05-16T10:40:23.542Z,4.85
2023-05-16T10:42:57.896Z,4.95
2023-05-16T10:45:25.208Z,4.72
2023-05-16T10:47:56.821Z,4.90
2023-05-16T10:50:43.035Z,4.82
2023-05-16T10:53:18.828Z,4.50
2023-05-16T10:56:04.211Z,5.15
2023-05-16T10:58:38.198Z,4.75
2023-05-16T11:01:27.335Z,5.72
2023-05-16T11:04:00.836Z,6.68
2023-05-16T11:06:30.110Z,6.90
2023-05-16T11:09:10.436Z,6.13
2023-05-16T11:11:53.817Z,6.38
2023-05-16T11:14:24.265Z,5.32
2023-05-16T11:16:53.295Z,6.20
2023-05-16T11:19:48.002Z,8.35
2023-05-16T11:22:31.066Z,8.30
2023-05-16T11:25:06.807Z,7.90
2023-05-16T11:27:36.378Z,7.32
2023-05-16T11:30:06.156Z,6.82
2023-05-16T11:32:41.654Z,8.38
2023-05-16T11:35:14.283Z,8.32
2023-05-16T11:37:42.989Z,9.02
2023-05-16T11:40:13.698Z,9.00
2023-05-16T11:42:43.178Z,9.00
2023-05-16T11:45:14.852Z,10.05
2023-05-16T11:47:47.844Z,9.23
2023-05-16T11:50:24.442Z,10.20
2023-05-16T11:52:54.099Z,10.82
2023-05-16T11:55:40.549Z,12.90
2023-05-16T11:58:09.134Z,11.95
2023-05-16T12:00:36.108Z,12.40
2023-05-16T12:03:05.488Z,13.27
2023-05-16T12:05:35.084Z,13.20
2023-05-16T12:08:04.793Z,13.82
2023-05-16T12:10:36.513Z,14.13
2023-05-16T12:13:04.148Z,18.70
2023-05-16T12:15:31.521Z,15.73
2023-05-16T12:17:59.056Z,15.55
2023-05-16T12:20:26.564Z,14.88
2023-05-16T12:22:53.554Z,15.27
2023-05-16T12:25:36.401Z,14.05
2023-05-16T12:28:05.028Z,14.25
2023-05-16T12:30:33.327Z,14.63
2023-05-16T12:33:09.413Z,15.80
2023-05-16T12:35:39.471Z,15.60
2023-05-16T12:38:11.788Z,14.65
2023-05-16T12:40:40.543Z,13.85
2023-05-16T12:43:23.581Z,13.35
2023-05-16T12:45:56.691Z,13.63
2023-05-16T12:48:37.027Z,25.27
2023-05-16T12:51:15.361Z,16.00
2023-05-16T12:54:01.652Z,26.73
2023-05-16T12:56:35.227Z,19.63
2023-05-16T12:59:02.725Z,16.35
2023-05-16T13:01:30.272Z,14.82
2023-05-16T13:04:00.483Z,15.90
2023-05-16T13:06:28.911Z,17.23
2023-05-16T13:08:58.335Z,34.30
2023-05-16T13:11:26.256Z,19.65
2023-05-16T13:13:53.487Z,21.25
2023-05-16T13:16:29.411Z,16.70
2023-05-16T13:18:58.618Z,18.35
2023-05-16T13:21:28.127Z,12.68
2023-05-16T13:23:55.455Z,13.35
2023-05-16T13:26:22.645Z,10.45
2023-05-16T13:28:53.114Z,11.85
2023-05-16T13:31:20.125Z,12.90
2023-05-16T13:33:47.319Z,12.27
2023-05-16T13:36:14.221Z,11.88
2023-05-16T13:38:42.566Z,13.13
2023-05-16T13:41:09.492Z,11.43
2023-05-16T13:43:38.936Z,10.35
2023-05-16T13:46:06.095Z,11.35
2023-05-16T13:48:33.405Z,11.57
2023-05-16T13:51:02.903Z,10.35
2023-05-16T13:53:29.785Z,8.32
2023-05-16T13:55:56.685Z,7.18
2023-05-16T13:58:23.571Z,7.55
2023-05-16T14:00:51.047Z,7.60
2023-05-16T14:03:18.381Z,7.28
2023-05-16T14:05:45.989Z,7.72
2023-05-16T14:08:12.945Z,8.25
2023-05-16T14:10:39.880Z,8.15
2023-05-16T14:13:07.600Z,8.68
2023-05-16T14:15:37.445Z,8.02
2023-05-16T14:18:05.076Z,10.25
2023-05-16T14:20:32.127Z,11.48
2023-05-16T14:22:59.297Z,11.27
2023-05-16T14:25:26.587Z,10.38
2023-05-16T14:27:53.830Z,10.30
2023-05-16T14:30:21.192Z,9.75
2023-05-16T14:32:48.091Z,11.50
2023-05-16T14:35:16.109Z,10.68
2023-05-16T14:37:43.160Z,8.18
2023-05-16T14:40:10.869Z,6.10
2023-05-16T14:42:37.872Z,5.93
2023-05-16T14:45:05.217Z,4.90
2023-05-16T14:47:32.180Z,4.97
2023-05-16T14:50:01.260Z,3.58
2023-05-16T14:52:28.420Z,2.95
2023-05-16T14:54:55.688Z,2.65
2023-05-16T14:57:22.723Z,3.65
2023-05-16T14:59:50.628Z,3.33
2023-05-16T15:02:19.483Z,3.33
2023-05-16T15:04:46.417Z,2.95
2023-05-16T15:07:13.721Z,3.22
2023-05-16T15:09:40.692Z,3.78
2023-05-16T15:12:08.845Z,2.47
2023-05-16T15:14:36.560Z,2.90
2023-05-16T15:17:06.030Z,2.85
2023-05-16T15:19:35.579Z,4.88
2023-05-16T15:22:02.572Z,3.97
2023-05-16T15:24:29.558Z,4.32
2023-05-16T15:26:56.606Z,3.85
2023-05-16T15:29:23.595Z,5.40
2023-05-16T15:31:50.527Z,4.72
2023-05-16T15:34:17.910Z,2.97
2023-05-16T15:36:45.319Z,2.92
2023-05-16T15:39:12.280Z,3.15
2023-05-16T15:42:01.139Z,2.50
2023-05-16T15:44:26.490Z,3.15
2023-05-16T15:46:53.444Z,3.63
2023-05-16T15:49:21.279Z,3.80
2023-05-16T15:51:48.741Z,3.95
2023-05-16T15:54:15.794Z,4.90
2023-05-16T15:56:42.780Z,4.90
2023-05-16T15:59:10.179Z,5.28
2023-05-16T16:01:37.131Z,5.15
2023-05-16T16:04:04.618Z,5.80
2023-05-16T16:06:31.783Z,5.70
2023-05-16T16:08:59.183Z,5.95
2023-05-16T16:11:26.981Z,7.20
2023-05-16T16:13:54.152Z,6.95
2023-05-16T16:16:21.108Z,9.02
2023-05-16T16:18:48.192Z,8.82
2023-05-16T16:21:15.185Z,7.72
2023-05-16T16:23:43.048Z,5.72
2023-05-16T16:26:09.980Z,6.95
2023-05-16T16:28:36.992Z,6.60
2023-05-16T16:31:04.424Z,5.50
2023-05-16T16:33:46.799Z,5.53
2023-05-16T16:36:13.705Z,6.18
2023-05-16T16:38:40.715Z,6.53
2023-05-16T16:41:07.601Z,5.53
2023-05-16T16:43:34.738Z,7.30
2023-05-16T16:46:01.707Z,6.45
2023-05-16T16:48:28.568Z,6.05
2023-05-16T16:50:56.767Z,6.05
2023-05-16T16:53:23.629Z,6.07
2023-05-16T16:55:50.688Z,6.82
2023-05-16T16:58:17.654Z,5.82
2023-05-16T17:00:44.833Z,5.47
2023-05-16T17:03:12.450Z,5.18
2023-05-16T17:05:39.469Z,5.38
2023-05-16T17:08:06.905Z,5.38
2023-05-16T17:10:33.778Z,5.28
2023-05-16T17:13:07.189Z,7.20
2023-05-16T17:15:34.190Z,6.38
2023-05-16T17:18:01.124Z,6.85
2023-05-16T17:20:28.035Z,6.40
2023-05-16T17:22:55.015Z,6.53
2023-05-16T17:25:22.252Z,6.85
2023-05-16T17:27:49.139Z,6.40
2023-05-16T17:30:18.417Z,6.60
2023-05-16T17:32:45.898Z,6.80
2023-05-16T17:35:12.843Z,6.05
2023-05-16T17:37:39.841Z,7.22
2023-05-16T17:40:10.310Z,7.30
2023-05-16T17:42:38.527Z,7.82
2023-05-16T17:45:07.234Z,9.18
2023-05-16T17:47:34.265Z,21.90
2023-05-16T17:50:01.413Z,14.98
2023-05-16T17:52:29.040Z,9.70
2023-05-16T17:54:55.946Z,13.50
2023-05-16T17:57:22.938Z,15.80
2023-05-16T17:59:50.079Z,15.35
2023-05-16T18:02:17.479Z,15.73
2023-05-16T18:04:44.483Z,15.35
2023-05-16T18:07:11.693Z,10.77
2023-05-16T18:09:38.920Z,11.93
2023-05-16T18:12:06.500Z,10.52
2023-05-16T18:14:33.839Z,9.88
2023-05-16T18:17:00.722Z,10.38
2023-05-16T18:19:27.684Z,11.13
2023-05-16T18:21:54.707Z,10.95
2023-05-16T18:24:21.844Z,10.82
2023-05-16T18:26:49.538Z,10.05
2023-05-16T18:29:16.616Z,9.35
2023-05-16T18:31:44.748Z,8.88
2023-05-16T18:34:12.102Z,9.40
2023-05-16T18:36:39.077Z,10.18
2023-05-16T18:39:05.990Z,9.57
2023-05-16T18:41:32.903Z,9.43
2023-05-16T18:44:00.221Z,11.15
2023-05-16T18:46:27.297Z,10.75
2023-05-16T18:48:57.815Z,11.88
2023-05-16T18:51:25.305Z,11.23
2023-05-16T18:53:52.860Z,10.32
2023-05-16T18:56:19.817Z,10.63
2023-05-16T18:58:46.916Z,10.95
2023-05-16T19:01:14.276Z,11.02
2023-05-16T19:03:41.324Z,38.72
2023-05-16T19:06:08.782Z,12.32
2023-05-16T19:08:47.106Z,12.70
2023-05-16T19:11:15.078Z,12.38
2023-05-16T19:13:42.240Z,11.95
2023-05-16T19:16:09.711Z,18.52
2023-05-16T19:18:37.155Z,13.88
2023-05-16T19:21:04.267Z,14.75
2023-05-16T19:23:31.852Z,12.73
2023-05-16T19:25:58.897Z,13.10
2023-05-16T19:28:26.046Z,13.55
2023-05-16T19:30:53.360Z,14.55
2023-05-16T19:33:21.396Z,15.27
2023-05-16T19:35:49.025Z,13.93
2023-05-16T19:38:18.211Z,20.70
2023-05-16T19:40:45.763Z,20.08
2023-05-16T19:43:12.673Z,21.75
2023-05-16T19:45:39.656Z,23.48
2023-05-16T19:48:06.957Z,28.10
2023-05-16T19:50:34.179Z,24.80
2023-05-16T19:53:01.335Z,23.30
2023-05-16T19:55:29.316Z,19.27
2023-05-16T19:57:57.985Z,20.05
2023-05-16T20:00:25.218Z,16.52
2023-05-16T20:02:52.519Z,16.52
2023-05-16T20:05:22.743Z,14.32
2023-05-16T20:07:50.123Z,13.70
2023-05-16T20:10:17.889Z,14.52
2023-05-16T20:12:45.814Z,13.73
2023-05-16T20:15:12.850Z,19.30
2023-05-16T20:17:45.273Z,13.70
2023-05-16T20:20:12.784Z,12.38
2023-05-16T20:22:41.527Z,9.45
2023-05-16T20:25:10.493Z,6.82
2023-05-16T20:27:37.969Z,7.22
2023-05-16T20:30:09.831Z,6.82
2023-05-16T20:32:39.610Z,5.78
2023-05-16T20:35:09.249Z,35.90
2023-05-16T20:37:36.300Z,17.00
2023-05-16T20:40:03.763Z,12.00
2023-05-16T20:42:30.741Z,8.82
2023-05-16T20:44:57.723Z,9.20
2023-05-16T20:47:24.665Z,7.70
2023-05-16T20:49:52.029Z,9.23
2023-05-16T20:52:20.512Z,8.32
2023-05-16T20:54:48.897Z,11.13
2023-05-16T20:57:16.307Z,7.97
2023-05-16T20:59:43.709Z,7.43
2023-05-16T21:02:10.772Z,9.15
2023-05-16T21:04:38.748Z,9.60
2023-05-16T21:07:08.211Z,10.00
2023-05-16T21:09:38.036Z,9.98
2023-05-16T21:12:05.841Z,9.85
2023-05-16T21:14:32.793Z,8.75
2023-05-16T21:16:59.648Z,7.97
2023-05-16T21:19:28.044Z,7.72
2023-05-16T21:21:55.507Z,19.08
2023-05-16T21:24:22.654Z,10.88
2023-05-16T21:26:49.546Z,9.85
2023-05-16T21:29:16.860Z,9.73
2023-05-16T21:31:43.951Z,9.40
2023-05-16T21:34:12.337Z,10.82
2023-05-16T21:36:39.347Z,9.07
2023-05-16T21:39:06.218Z,7.85
2023-05-16T21:41:33.155Z,8.45
2023-05-16T21:44:00.595Z,10.50
2023-05-16T21:46:27.529Z,10.43
2023-05-16T21:48:54.614Z,10.93
2023-05-16T21:51:21.568Z,11.73
2023-05-16T21:53:48.969Z,10.00
2023-05-16T21:56:15.909Z,19.52
2023-05-16T21:58:42.979Z,12.13
2023-05-16T22:01:10.249Z,11.15
2023-05-16T22:03:37.788Z,10.45
2023-05-16T22:06:04.965Z,8.07
2023-05-16T22:08:32.456Z,9.43
2023-05-16T22:10:59.809Z,10.32
2023-05-16T22:13:27.269Z,8.82
2023-05-16T22:16:03.908Z,7.30
2023-05-16T22:18:33.142Z,7.07
2023-05-16T22:21:01.615Z,7.68
2023-05-16T22:23:28.629Z,7.88
2023-05-16T22:25:55.538Z,8.27
2023-05-16T22:28:22.438Z,8.07
2023-05-16T22:30:49.339Z,7.32
2023-05-16T22:33:16.782Z,6.90
2023-05-16T22:35:44.315Z,7.80
2023-05-16T22:38:11.324Z,6.45
2023-05-16T22:40:38.353Z,5.43
2023-05-16T22:43:05.746Z,5.65
2023-05-16T22:45:32.881Z,5.50
2023-05-16T22:47:59.760Z,5.15
2023-05-16T22:50:27.249Z,5.43
2023-05-16T22:52:54.592Z,4.75
2023-05-16T22:55:22.084Z,8.55
2023-05-16T22:57:49.020Z,5.20
2023-05-16T23:00:16.326Z,6.22
2023-05-16T23:02:43.284Z,7.38
2023-05-16T23:05:11.689Z,28.20
2023-05-16T23:07:39.046Z,6.75
2023-05-16T23:10:09.065Z,4.53
2023-05-16T23:12:36.003Z,4.10
2023-05-16T23:15:03.334Z,4.63
2023-05-16T23:17:30.230Z,3.58
2023-05-16T23:19:57.199Z,3.28
2023-05-16T23:22:24.531Z,3.28
2023-05-16T23:24:52.039Z,3.13
2023-05-16T23:27:19.097Z,3.10
2023-05-16T23:29:46.030Z,2.92
2023-05-16T23:32:13.802Z,2.88
2023-05-16T23:34:40.920Z,2.97
2023-05-16T23:37:07.794Z,2.95
2023-05-16T23:39:34.767Z,2.78
2023-05-16T23:42:01.880Z,2.25
2023-05-16T23:44:28.857Z,2.38
2023-05-16T23:46:55.823Z,2.00
2023-05-16T23:49:22.720Z,1.77
2023-05-16T23:51:57.652Z,1.80
2023-05-16T23:54:26.233Z,2.38
2023-05-16T23:56:53.285Z,2.00
2023-05-16T23:59:20.730Z,1.90
